createdAt,value
2019-03-26T00:00:53.248Z,65.50
2019-03-26T00:03:41.136Z,64.90
2019-03-26T00:06:09.796Z,64.10
2019-03-26T00:08:38.362Z,63.70
2019-03-26T00:11:06.921Z,63.80
2019-03-26T00:13:35.571Z,64.10
2019-03-26T00:16:04.135Z,63.90
2019-03-26T00:18:32.721Z,63.80
2019-03-26T00:21:01.210Z,64.20
2019-03-26T00:23:29.804Z,63.80
2019-03-26T00:25:58.384Z,63.30
2019-03-26T00:28:26.932Z,63.20
2019-03-26T00:30:58.104Z,62.20
2019-03-26T00:33:36.187Z,62.60
2019-03-26T00:35:56.861Z,62.40
2019-03-26T00:38:25.423Z,61.90
2019-03-26T00:40:53.907Z,62.00
2019-03-26T00:43:22.485Z,62.10
2019-03-26T00:45:51.250Z,62.00
2019-03-26T00:48:19.825Z,61.30
2019-03-26T00:50:48.404Z,61.10
2019-03-26T00:53:16.889Z,61.20
2019-03-26T00:55:45.464Z,61.10
2019-03-26T00:58:14.034Z,60.80
2019-03-26T01:00:44.392Z,60.70
2019-03-26T01:03:17.999Z,60.30
2019-03-26T01:05:46.668Z,60.20
2019-03-26T01:08:15.163Z,60.70
2019-03-26T01:10:43.658Z,60.80
2019-03-26T01:13:12.371Z,60.10
2019-03-26T01:15:41.006Z,59.80
2019-03-26T01:18:09.518Z,60.00
2019-03-26T01:20:38.317Z,60.00
2019-03-26T01:23:07.102Z,60.20
2019-03-26T01:25:36.011Z,60.40
2019-03-26T01:28:04.909Z,60.90
2019-03-26T01:30:33.590Z,61.20
2019-03-26T01:33:02.148Z,62.30
2019-03-26T01:35:30.704Z,62.90
2019-03-26T01:37:59.456Z,63.30
2019-03-26T01:40:28.013Z,63.70
2019-03-26T01:42:56.612Z,63.70
2019-03-26T01:45:25.165Z,63.80
2019-03-26T01:47:53.719Z,64.00
2019-03-26T01:50:22.216Z,63.50
2019-03-26T01:52:50.899Z,63.50
2019-03-26T01:55:19.529Z,63.20
2019-03-26T01:57:48.317Z,63.60
2019-03-26T02:00:16.942Z,63.70
2019-03-26T02:02:45.511Z,63.60
2019-03-26T02:05:14.187Z,62.20
2019-03-26T02:07:43.022Z,62.40
2019-03-26T02:10:11.950Z,62.80
2019-03-26T02:12:40.592Z,62.50
2019-03-26T02:15:10.997Z,63.00
2019-03-26T02:17:39.556Z,63.20
2019-03-26T02:20:08.477Z,63.90
2019-03-26T02:22:37.194Z,64.50
2019-03-26T02:25:05.911Z,64.70
2019-03-26T02:27:34.467Z,65.00
2019-03-26T02:30:03.110Z,64.90
2019-03-26T02:32:31.686Z,64.70
2019-03-26T02:35:16.223Z,64.70
2019-03-26T02:37:30.667Z,64.80
2019-03-26T02:39:59.329Z,64.60
2019-03-26T02:42:27.921Z,64.20
2019-03-26T02:44:56.507Z,64.30
2019-03-26T02:47:25.145Z,64.30
2019-03-26T02:49:53.797Z,64.10
2019-03-26T02:52:22.361Z,64.40
2019-03-26T02:54:51.079Z,64.60
2019-03-26T02:57:19.736Z,64.80
2019-03-26T02:59:48.280Z,64.70
2019-03-26T03:02:16.878Z,65.70
2019-03-26T03:04:45.728Z,64.70
2019-03-26T03:07:14.315Z,64.70
2019-03-26T03:09:42.949Z,64.70
2019-03-26T03:12:11.521Z,64.50
2019-03-26T03:14:40.103Z,64.80
2019-03-26T03:17:08.673Z,65.10
2019-03-26T03:19:37.289Z,64.90
2019-03-26T03:22:05.878Z,64.70
2019-03-26T03:24:34.507Z,64.70
2019-03-26T03:27:04.727Z,64.50
2019-03-26T03:29:33.317Z,64.40
2019-03-26T03:32:01.898Z,64.30
2019-03-26T03:34:30.458Z,64.30
2019-03-26T03:36:59.093Z,64.60
2019-03-26T03:39:27.847Z,64.70
2019-03-26T03:41:56.539Z,64.10
2019-03-26T03:44:25.021Z,64.00
2019-03-26T03:46:55.839Z,63.50
2019-03-26T03:49:27.545Z,63.50
2019-03-26T03:51:57.960Z,63.40
2019-03-26T03:54:27.608Z,63.50
2019-03-26T03:56:58.313Z,63.80
2019-03-26T03:59:29.049Z,64.10
2019-03-26T04:01:57.983Z,63.80
2019-03-26T04:04:26.587Z,64.10
2019-03-26T04:06:55.283Z,63.80
2019-03-26T04:09:23.842Z,64.00
2019-03-26T04:11:52.513Z,64.00
2019-03-26T04:14:21.070Z,63.90
2019-03-26T04:16:49.872Z,63.70
2019-03-26T04:19:18.501Z,64.00
2019-03-26T04:21:47.054Z,63.50
2019-03-26T04:24:15.632Z,63.20
2019-03-26T04:26:44.129Z,63.10
2019-03-26T04:29:12.883Z,63.00
2019-03-26T04:31:41.370Z,62.10
2019-03-26T04:34:09.869Z,62.50
2019-03-26T04:36:38.441Z,62.40
2019-03-26T04:39:08.088Z,62.20
2019-03-26T04:41:37.135Z,62.10
2019-03-26T04:44:05.684Z,62.10
2019-03-26T04:46:34.173Z,62.00
2019-03-26T04:49:02.680Z,61.50
2019-03-26T04:51:31.241Z,61.60
2019-03-26T04:53:59.963Z,61.40
2019-03-26T04:56:28.519Z,61.20
2019-03-26T04:58:57.136Z,61.30
2019-03-26T05:01:25.633Z,61.10
2019-03-26T05:03:54.338Z,61.40
2019-03-26T05:06:22.846Z,61.30
2019-03-26T05:08:51.469Z,61.60
2019-03-26T05:11:20.024Z,61.50
2019-03-26T05:13:48.820Z,61.80
2019-03-26T05:16:17.378Z,62.00
2019-03-26T05:18:45.969Z,62.80
2019-03-26T05:21:14.541Z,61.30
2019-03-26T05:23:43.085Z,61.30
2019-03-26T05:26:11.617Z,61.00
2019-03-26T05:28:40.164Z,61.30
2019-03-26T05:31:08.763Z,61.10
2019-03-26T05:33:37.313Z,61.20
2019-03-26T05:36:05.872Z,60.90
2019-03-26T05:38:34.449Z,60.90
2019-03-26T05:41:03.138Z,61.00
2019-03-26T05:43:31.881Z,60.80
2019-03-26T05:46:00.364Z,60.90
2019-03-26T05:48:28.923Z,60.90
2019-03-26T05:50:57.506Z,60.70
2019-03-26T05:53:25.991Z,60.60
2019-03-26T05:55:54.658Z,60.40
2019-03-26T05:58:23.296Z,60.10
2019-03-26T06:00:51.938Z,60.10
2019-03-26T06:03:20.533Z,60.30
2019-03-26T06:05:49.147Z,60.00
2019-03-26T06:08:17.749Z,60.10
2019-03-26T06:10:46.321Z,60.20
2019-03-26T06:13:14.860Z,59.60
2019-03-26T06:15:43.446Z,59.50
2019-03-26T06:18:11.928Z,59.50
2019-03-26T06:20:40.439Z,60.50
2019-03-26T06:23:09.001Z,60.90
2019-03-26T06:25:37.733Z,59.70
2019-03-26T06:28:06.420Z,59.00
2019-03-26T06:30:35.045Z,59.50
2019-03-26T06:33:03.696Z,58.90
2019-03-26T06:35:32.297Z,58.60
2019-03-26T06:38:00.843Z,58.10
2019-03-26T06:40:29.525Z,58.10
2019-03-26T06:42:58.049Z,57.70
2019-03-26T06:45:26.672Z,57.50
2019-03-26T06:47:55.365Z,58.40
2019-03-26T06:50:23.928Z,58.10
2019-03-26T06:52:52.507Z,57.40
2019-03-26T06:55:21.132Z,57.70
2019-03-26T06:57:49.783Z,57.80
2019-03-26T07:00:29.490Z,57.30
2019-03-26T07:02:59.669Z,57.60
2019-03-26T07:05:28.233Z,57.70
2019-03-26T07:07:56.877Z,57.40
2019-03-26T07:10:27.919Z,57.30
2019-03-26T07:12:57.393Z,57.50
2019-03-26T07:15:25.980Z,57.30
2019-03-26T07:17:54.799Z,57.50
2019-03-26T07:20:23.499Z,56.70
2019-03-26T07:22:52.217Z,56.60
2019-03-26T07:25:20.902Z,56.40
2019-03-26T07:27:49.557Z,56.10
2019-03-26T07:30:21.192Z,55.50
2019-03-26T07:32:48.963Z,55.90
2019-03-26T07:35:17.534Z,54.90
2019-03-26T07:37:46.134Z,55.10
2019-03-26T07:40:15.339Z,55.00
2019-03-26T07:42:43.899Z,55.00
2019-03-26T07:45:12.728Z,54.90
2019-03-26T07:47:41.368Z,54.10
2019-03-26T07:50:10.106Z,54.40
2019-03-26T07:52:38.696Z,54.00
2019-03-26T07:55:08.729Z,53.90
2019-03-26T07:57:37.367Z,53.60
2019-03-26T08:00:10.585Z,53.80
2019-03-26T08:02:39.290Z,53.80
2019-03-26T08:05:08.393Z,53.90
2019-03-26T08:07:37.812Z,54.40
2019-03-26T08:10:08.207Z,54.50
2019-03-26T08:12:36.778Z,54.50
2019-03-26T08:15:07.481Z,54.20
2019-03-26T08:17:36.056Z,53.90
2019-03-26T08:20:06.926Z,53.90
2019-03-26T08:22:35.554Z,52.70
2019-03-26T08:25:07.069Z,52.80
2019-03-26T08:27:35.769Z,52.50
2019-03-26T08:30:06.099Z,51.90
2019-03-26T08:32:36.913Z,51.40
2019-03-26T08:35:06.089Z,50.70
2019-03-26T08:37:34.736Z,50.00
2019-03-26T08:40:04.758Z,48.60
2019-03-26T08:42:33.237Z,47.60
2019-03-26T08:45:01.727Z,46.60
2019-03-26T08:47:30.517Z,45.20
2019-03-26T08:49:59.145Z,44.10
2019-03-26T08:52:27.712Z,44.40
2019-03-26T08:54:56.403Z,43.90
2019-03-26T08:57:24.968Z,45.60
2019-03-26T08:59:53.610Z,46.30
2019-03-26T09:02:23.127Z,47.00
2019-03-26T09:04:51.789Z,47.80
2019-03-26T09:07:20.446Z,47.90
2019-03-26T09:09:49.091Z,48.10
2019-03-26T09:12:17.738Z,48.50
2019-03-26T09:14:46.288Z,47.70
2019-03-26T09:17:14.855Z,48.90
2019-03-26T09:19:43.590Z,49.40
2019-03-26T09:22:12.076Z,49.80
2019-03-26T09:24:40.613Z,49.60
2019-03-26T09:27:09.232Z,50.10
2019-03-26T09:29:37.730Z,50.40
2019-03-26T09:32:06.291Z,50.50
2019-03-26T09:34:34.789Z,50.50
2019-03-26T09:37:03.443Z,51.40
2019-03-26T09:39:32.090Z,51.30
2019-03-26T09:42:00.819Z,51.30
2019-03-26T09:44:29.478Z,52.10
2019-03-26T09:46:58.098Z,52.50
2019-03-26T09:49:26.677Z,53.00
2019-03-26T09:51:55.259Z,52.50
2019-03-26T09:54:23.975Z,53.00
2019-03-26T09:56:52.684Z,53.10
2019-03-26T09:59:21.176Z,52.60
2019-03-26T10:01:49.845Z,52.00
2019-03-26T10:04:18.340Z,51.80
2019-03-26T10:06:46.896Z,51.10
2019-03-26T10:09:15.575Z,50.70
2019-03-26T10:11:44.129Z,49.70
2019-03-26T10:14:12.718Z,49.90
2019-03-26T10:16:41.281Z,51.40
2019-03-26T10:19:09.923Z,50.70
2019-03-26T10:21:38.641Z,50.80
2019-03-26T10:24:07.217Z,51.20
2019-03-26T10:26:35.800Z,49.10
2019-03-26T10:29:18.765Z,49.20
2019-03-26T10:31:34.633Z,48.60
2019-03-26T10:34:03.262Z,48.00
2019-03-26T10:36:32.375Z,47.10
2019-03-26T10:39:05.279Z,48.30
2019-03-26T10:41:31.235Z,48.70
2019-03-26T10:43:59.789Z,49.60
2019-03-26T10:46:28.364Z,48.70
2019-03-26T10:48:56.921Z,48.20
2019-03-26T10:51:25.502Z,48.50
2019-03-26T10:53:54.073Z,47.80
2019-03-26T10:56:22.635Z,46.50
2019-03-26T10:58:51.170Z,46.70
2019-03-26T11:01:19.732Z,46.50
2019-03-26T11:03:48.310Z,45.80
2019-03-26T11:06:16.858Z,44.30
2019-03-26T11:08:45.403Z,45.10
2019-03-26T11:11:14.007Z,44.60
2019-03-26T11:13:42.630Z,44.00
2019-03-26T11:16:11.220Z,43.50
2019-03-26T11:18:39.734Z,43.80
2019-03-26T11:21:08.459Z,45.00
2019-03-26T11:23:37.026Z,44.90
2019-03-26T11:26:05.721Z,43.20
2019-03-26T11:28:34.235Z,40.00
2019-03-26T11:31:02.875Z,35.90
2019-03-26T11:33:31.497Z,33.30
2019-03-26T11:36:26.573Z,32.30
2019-03-26T11:38:55.128Z,31.70
2019-03-26T11:41:23.812Z,32.30
2019-03-26T11:43:52.432Z,33.60
2019-03-26T11:46:20.914Z,31.20
2019-03-26T11:48:49.415Z,32.00
2019-03-26T11:51:17.981Z,34.00
2019-03-26T11:53:46.561Z,32.10
2019-03-26T11:56:15.128Z,32.20
2019-03-26T11:58:43.725Z,30.40
2019-03-26T12:01:12.372Z,29.40
2019-03-26T12:03:40.875Z,30.90
2019-03-26T12:06:10.281Z,31.40
2019-03-26T12:08:38.915Z,32.20
2019-03-26T12:11:07.407Z,32.20
2019-03-26T12:13:35.925Z,31.80
2019-03-26T12:16:04.735Z,29.90
2019-03-26T12:18:33.382Z,31.10
2019-03-26T12:21:01.943Z,29.50
2019-03-26T12:23:30.431Z,30.00
2019-03-26T12:25:59.131Z,30.50
2019-03-26T12:28:27.629Z,30.00
2019-03-26T12:30:56.212Z,28.10
2019-03-26T12:33:24.696Z,28.00
2019-03-26T12:35:53.327Z,27.90
2019-03-26T12:38:21.963Z,29.50
2019-03-26T12:40:50.602Z,29.60
2019-03-26T12:43:19.357Z,29.40
2019-03-26T12:45:47.907Z,27.90
2019-03-26T12:48:16.469Z,28.60
2019-03-26T12:50:45.117Z,28.10
2019-03-26T12:53:13.745Z,27.50
2019-03-26T12:55:42.397Z,28.10
2019-03-26T12:58:11.028Z,27.80
2019-03-26T13:00:39.589Z,27.20
2019-03-26T13:03:08.315Z,26.50
2019-03-26T13:05:36.868Z,27.30
2019-03-26T13:08:05.484Z,27.10
2019-03-26T13:10:34.065Z,26.90
2019-03-26T13:13:02.612Z,26.20
2019-03-26T13:15:31.281Z,25.70
2019-03-26T13:17:59.889Z,25.10
2019-03-26T13:20:28.474Z,26.20
2019-03-26T13:22:57.189Z,26.00
2019-03-26T13:25:25.776Z,25.90
2019-03-26T13:27:54.411Z,24.20
2019-03-26T13:30:23.046Z,26.30
2019-03-26T13:32:51.577Z,25.10
2019-03-26T13:35:20.222Z,24.90
2019-03-26T13:37:48.829Z,24.70
2019-03-26T13:40:26.990Z,25.70
2019-03-26T13:42:47.893Z,26.60
2019-03-26T13:45:16.614Z,26.40
2019-03-26T13:47:45.099Z,26.30
2019-03-26T13:50:14.122Z,26.40
2019-03-26T13:52:42.764Z,25.30
2019-03-26T13:55:11.449Z,24.40
2019-03-26T13:57:40.011Z,24.00
2019-03-26T14:00:09.743Z,22.90
2019-03-26T14:02:38.453Z,23.00
2019-03-26T14:05:10.020Z,22.50
2019-03-26T14:07:38.542Z,22.30
2019-03-26T14:10:08.112Z,21.50
2019-03-26T14:12:36.832Z,21.80
2019-03-26T14:15:06.722Z,23.40
2019-03-26T14:17:35.208Z,23.10
2019-03-26T14:20:05.844Z,23.40
2019-03-26T14:22:34.402Z,23.40
2019-03-26T14:25:03.087Z,24.60
2019-03-26T14:27:31.644Z,24.80
2019-03-26T14:30:00.341Z,23.10
2019-03-26T14:32:28.988Z,23.30
2019-03-26T14:34:57.561Z,21.90
2019-03-26T14:37:26.283Z,23.10
2019-03-26T14:39:54.769Z,22.90
2019-03-26T14:42:23.394Z,21.30
2019-03-26T14:44:52.040Z,21.90
2019-03-26T14:47:20.600Z,21.70
2019-03-26T14:49:49.128Z,21.30
2019-03-26T14:52:17.779Z,22.70
2019-03-26T14:54:46.333Z,22.50
2019-03-26T14:57:14.973Z,22.80
2019-03-26T14:59:43.548Z,23.20
2019-03-26T15:02:12.192Z,22.80
2019-03-26T15:04:40.776Z,23.20
2019-03-26T15:07:09.332Z,23.10
2019-03-26T15:09:37.890Z,23.30
2019-03-26T15:12:07.201Z,23.10
2019-03-26T15:14:35.721Z,23.00
2019-03-26T15:17:04.293Z,21.60
2019-03-26T15:19:32.909Z,21.40
2019-03-26T15:22:01.568Z,21.50
2019-03-26T15:24:30.193Z,22.00
2019-03-26T15:26:58.763Z,22.20
2019-03-26T15:29:27.313Z,22.00
2019-03-26T15:31:55.860Z,21.80
2019-03-26T15:34:35.646Z,21.80
2019-03-26T15:36:54.583Z,21.80
2019-03-26T15:39:23.266Z,22.70
2019-03-26T15:41:51.750Z,24.40
2019-03-26T15:44:20.879Z,24.30
2019-03-26T15:46:49.612Z,24.70
2019-03-26T15:49:18.162Z,24.30
2019-03-26T15:51:46.733Z,25.30
2019-03-26T15:54:15.291Z,25.80
2019-03-26T15:56:43.971Z,26.60
2019-03-26T15:59:12.518Z,27.00
2019-03-26T16:01:41.132Z,26.50
2019-03-26T16:04:09.787Z,26.40
2019-03-26T16:06:38.356Z,26.60
2019-03-26T16:09:08.494Z,26.60
2019-03-26T16:11:36.982Z,26.50
2019-03-26T16:14:05.614Z,27.00
2019-03-26T16:16:34.266Z,27.30
2019-03-26T16:19:02.888Z,27.60
2019-03-26T16:21:31.655Z,27.30
2019-03-26T16:24:00.344Z,26.40
2019-03-26T16:26:28.849Z,26.30
2019-03-26T16:28:57.488Z,27.50
2019-03-26T16:31:26.117Z,28.40
2019-03-26T16:33:54.771Z,29.10
2019-03-26T16:36:23.352Z,29.70
2019-03-26T16:38:51.921Z,30.00
2019-03-26T16:41:20.569Z,30.20
2019-03-26T16:43:49.120Z,31.10
2019-03-26T16:46:17.650Z,31.50
2019-03-26T16:48:46.209Z,31.60
2019-03-26T16:51:14.845Z,31.60
2019-03-26T16:53:43.425Z,31.30
2019-03-26T16:56:12.055Z,31.20
2019-03-26T16:58:40.650Z,31.60
2019-03-26T17:01:09.217Z,32.70
2019-03-26T17:03:37.786Z,34.00
2019-03-26T17:06:06.441Z,35.20
2019-03-26T17:08:34.999Z,36.50
2019-03-26T17:11:03.739Z,37.00
2019-03-26T17:13:32.356Z,37.50
2019-03-26T17:16:00.870Z,38.20
2019-03-26T17:18:29.583Z,38.40
2019-03-26T17:20:58.209Z,38.60
2019-03-26T17:23:26.949Z,39.20
2019-03-26T17:25:55.441Z,39.40
2019-03-26T17:28:23.945Z,39.80
2019-03-26T17:30:52.467Z,40.70
2019-03-26T17:33:21.122Z,40.70
2019-03-26T17:35:50.368Z,41.20
2019-03-26T17:38:18.928Z,41.30
2019-03-26T17:40:47.487Z,42.30
2019-03-26T17:43:16.096Z,42.90
2019-03-26T17:45:44.734Z,43.30
2019-03-26T17:48:13.409Z,43.50
2019-03-26T17:50:41.964Z,43.40
2019-03-26T17:53:10.519Z,43.70
2019-03-26T17:55:39.173Z,44.20
2019-03-26T17:58:07.740Z,44.20
2019-03-26T18:00:42.029Z,44.70
2019-03-26T18:03:10.960Z,45.30
2019-03-26T18:05:39.661Z,45.00
2019-03-26T18:08:08.317Z,45.20
2019-03-26T18:10:36.887Z,45.50
2019-03-26T18:13:05.567Z,45.80
2019-03-26T18:15:34.656Z,46.30
2019-03-26T18:18:03.222Z,46.60
2019-03-26T18:20:33.074Z,46.80
2019-03-26T18:23:01.889Z,46.90
2019-03-26T18:25:30.393Z,47.50
2019-03-26T18:27:59.089Z,48.20
2019-03-26T18:30:27.785Z,48.70
2019-03-26T18:32:56.322Z,48.80
2019-03-26T18:35:24.882Z,48.30
2019-03-26T18:37:53.469Z,48.60
2019-03-26T18:40:22.023Z,49.00
2019-03-26T18:42:50.585Z,48.70
2019-03-26T18:45:19.121Z,49.80
2019-03-26T18:47:47.918Z,49.70
2019-03-26T18:50:17.012Z,49.70
2019-03-26T18:52:45.584Z,50.00
2019-03-26T18:55:14.487Z,50.00
2019-03-26T18:57:43.138Z,50.20
2019-03-26T19:00:14.184Z,50.20
2019-03-26T19:02:42.916Z,50.20
2019-03-26T19:05:11.741Z,50.10
2019-03-26T19:07:40.476Z,50.30
2019-03-26T19:10:14.856Z,50.40
2019-03-26T19:12:56.233Z,50.50
2019-03-26T19:15:13.773Z,50.80
2019-03-26T19:17:42.345Z,50.70
2019-03-26T19:20:11.044Z,50.80
2019-03-26T19:22:39.676Z,51.10
2019-03-26T19:25:08.430Z,51.40
2019-03-26T19:27:36.913Z,51.70
2019-03-26T19:30:07.683Z,51.60
2019-03-26T19:32:36.195Z,51.60
2019-03-26T19:35:06.616Z,52.30
2019-03-26T19:37:35.172Z,52.10
2019-03-26T19:40:05.575Z,52.30
2019-03-26T19:42:34.215Z,52.10
2019-03-26T19:45:03.015Z,52.30
2019-03-26T19:47:31.611Z,52.30
2019-03-26T19:50:00.340Z,52.30
2019-03-26T19:52:28.964Z,52.20
2019-03-26T19:55:00.684Z,52.80
2019-03-26T19:57:27.824Z,52.00
2019-03-26T19:59:56.410Z,51.90
2019-03-26T20:02:24.974Z,52.10
2019-03-26T20:04:53.520Z,52.60
2019-03-26T20:07:22.061Z,52.70
2019-03-26T20:09:50.617Z,52.60
2019-03-26T20:12:19.274Z,52.90
2019-03-26T20:14:47.916Z,52.70
2019-03-26T20:17:16.556Z,52.70
2019-03-26T20:19:45.198Z,52.90
2019-03-26T20:22:14.802Z,52.60
2019-03-26T20:24:43.401Z,52.90
2019-03-26T20:27:12.023Z,52.80
2019-03-26T20:29:40.508Z,52.90
2019-03-26T20:32:09.084Z,52.90
2019-03-26T20:34:37.714Z,52.70
2019-03-26T20:37:06.445Z,52.70
2019-03-26T20:39:35.137Z,53.00
2019-03-26T20:42:03.628Z,53.00
2019-03-26T20:44:32.159Z,53.20
2019-03-26T20:47:00.725Z,53.00
2019-03-26T20:49:29.350Z,53.10
2019-03-26T20:51:58.163Z,53.30
2019-03-26T20:54:26.655Z,53.10
2019-03-26T20:56:55.316Z,53.30
2019-03-26T20:59:24.377Z,53.00
2019-03-26T21:01:52.884Z,53.60
2019-03-26T21:04:21.446Z,53.50
2019-03-26T21:06:50.071Z,53.30
2019-03-26T21:09:18.662Z,53.40
2019-03-26T21:11:47.291Z,54.00
2019-03-26T21:14:16.171Z,54.80
2019-03-26T21:16:44.733Z,54.20
2019-03-26T21:19:13.329Z,54.00
2019-03-26T21:21:42.119Z,54.30
2019-03-26T21:24:10.617Z,54.00
2019-03-26T21:26:39.221Z,54.30
2019-03-26T21:29:07.767Z,54.40
2019-03-26T21:31:36.348Z,54.20
2019-03-26T21:34:05.003Z,54.40
2019-03-26T21:36:33.713Z,54.50
2019-03-26T21:39:02.444Z,54.70
2019-03-26T21:41:30.931Z,54.90
2019-03-26T21:44:04.510Z,55.20
2019-03-26T21:46:30.053Z,55.10
2019-03-26T21:48:58.679Z,55.30
2019-03-26T21:51:27.467Z,55.10
2019-03-26T21:53:56.103Z,55.10
2019-03-26T21:56:24.605Z,55.00
2019-03-26T21:58:53.112Z,55.50
2019-03-26T22:01:21.668Z,55.30
2019-03-26T22:03:50.250Z,55.90
2019-03-26T22:06:18.818Z,56.00
2019-03-26T22:08:47.459Z,56.10
2019-03-26T22:11:16.053Z,56.00
2019-03-26T22:13:44.665Z,56.00
2019-03-26T22:16:13.336Z,56.10
2019-03-26T22:18:41.965Z,56.20
2019-03-26T22:21:10.596Z,55.80
2019-03-26T22:23:39.249Z,55.80
2019-03-26T22:26:07.799Z,55.70
2019-03-26T22:28:36.384Z,55.80
2019-03-26T22:31:04.951Z,55.50
2019-03-26T22:33:33.521Z,55.80
2019-03-26T22:36:02.156Z,56.10
2019-03-26T22:38:30.797Z,56.40
2019-03-26T22:40:59.379Z,56.60
2019-03-26T22:43:27.856Z,56.50
2019-03-26T22:45:56.456Z,56.90
2019-03-26T22:48:25.149Z,56.60
2019-03-26T22:50:53.716Z,56.60
2019-03-26T22:53:22.226Z,57.00
2019-03-26T22:55:50.918Z,57.30
2019-03-26T22:58:19.413Z,57.40
2019-03-26T23:00:48.899Z,57.70
2019-03-26T23:03:17.463Z,57.90
2019-03-26T23:05:45.963Z,57.80
2019-03-26T23:08:14.463Z,57.80
2019-03-26T23:10:43.101Z,58.10
2019-03-26T23:13:11.754Z,57.50
2019-03-26T23:15:40.466Z,57.50
2019-03-26T23:18:09.113Z,58.10
2019-03-26T23:20:40.465Z,58.30
2019-03-26T23:23:09.051Z,58.10
2019-03-26T23:25:38.451Z,57.80
2019-03-26T23:28:07.006Z,57.70
2019-03-26T23:30:35.720Z,58.10
2019-03-26T23:33:04.373Z,58.30
2019-03-26T23:35:35.429Z,58.40
2019-03-26T23:38:04.066Z,58.10
2019-03-26T23:40:32.698Z,57.90
2019-03-26T23:43:01.418Z,57.90
2019-03-26T23:45:29.976Z,58.10
2019-03-26T23:47:58.583Z,58.60
2019-03-26T23:50:27.129Z,58.40
2019-03-26T23:52:55.680Z,58.60
2019-03-26T23:55:24.327Z,59.00
2019-03-26T23:57:52.880Z,58.70
